sensor_id;sensor_type;location;lat;lon;timestamp;temperature;humidity
17827;DHT22;9038;48.208;16.308;2022-12-18T00:00:10;1.80;60.20
17827;DHT22;9038;48.208;16.308;2022-12-18T00:02:13;1.80;60.70
17827;DHT22;9038;48.208;16.308;2022-12-18T00:04:20;1.80;61.10
17827;DHT22;9038;48.208;16.308;2022-12-18T00:06:23;1.80;61.20
17827;DHT22;9038;48.208;16.308;2022-12-18T00:08:25;1.80;61.40
17827;DHT22;9038;48.208;16.308;2022-12-18T00:10:27;1.80;61.30
17827;DHT22;9038;48.208;16.308;2022-12-18T00:12:29;1.80;61.30
17827;DHT22;9038;48.208;16.308;2022-12-18T00:14:31;1.70;61.40
17827;DHT22;9038;48.208;16.308;2022-12-18T00:16:34;1.70;61.50
17827;DHT22;9038;48.208;16.308;2022-12-18T00:18:37;1.80;61.60
17827;DHT22;9038;48.208;16.308;2022-12-18T00:20:40;1.70;61.40
17827;DHT22;9038;48.208;16.308;2022-12-18T00:22:41;1.70;61.40
17827;DHT22;9038;48.208;16.308;2022-12-18T00:24:43;1.70;61.40
17827;DHT22;9038;48.208;16.308;2022-12-18T00:26:45;1.60;61.20
17827;DHT22;9038;48.208;16.308;2022-12-18T00:28:48;1.60;61.30
17827;DHT22;9038;48.208;16.308;2022-12-18T00:30:49;1.50;61.20
17827;DHT22;9038;48.208;16.308;2022-12-18T00:32:53;1.40;61.10
17827;DHT22;9038;48.208;16.308;2022-12-18T00:34:55;1.40;61.10
17827;DHT22;9038;48.208;16.308;2022-12-18T00:36:57;1.30;60.90
17827;DHT22;9038;48.208;16.308;2022-12-18T00:39:00;1.30;61.00
17827;DHT22;9038;48.208;16.308;2022-12-18T00:41:02;1.30;61.00
17827;DHT22;9038;48.208;16.308;2022-12-18T00:43:04;1.30;61.00
17827;DHT22;9038;48.208;16.308;2022-12-18T00:45:06;1.20;60.80
17827;DHT22;9038;48.208;16.308;2022-12-18T00:47:08;1.20;60.30
17827;DHT22;9038;48.208;16.308;2022-12-18T00:49:15;1.10;60.00
17827;DHT22;9038;48.208;16.308;2022-12-18T00:51:17;1.00;59.90
17827;DHT22;9038;48.208;16.308;2022-12-18T00:53:19;1.00;60.30
17827;DHT22;9038;48.208;16.308;2022-12-18T00:55:21;1.00;60.80
17827;DHT22;9038;48.208;16.308;2022-12-18T00:57:23;1.00;61.00
17827;DHT22;9038;48.208;16.308;2022-12-18T00:59:25;0.90;61.10
17827;DHT22;9038;48.208;16.308;2022-12-18T01:01:27;0.80;61.40
17827;DHT22;9038;48.208;16.308;2022-12-18T01:03:29;0.70;61.80
17827;DHT22;9038;48.208;16.308;2022-12-18T01:05:32;0.60;62.00
17827;DHT22;9038;48.208;16.308;2022-12-18T01:07:35;0.50;62.20
17827;DHT22;9038;48.208;16.308;2022-12-18T01:09:36;0.50;63.10
17827;DHT22;9038;48.208;16.308;2022-12-18T01:11:39;0.40;62.40
17827;DHT22;9038;48.208;16.308;2022-12-18T01:13:41;0.40;62.50
17827;DHT22;9038;48.208;16.308;2022-12-18T01:15:48;0.40;62.60
17827;DHT22;9038;48.208;16.308;2022-12-18T01:17:52;0.40;62.60
17827;DHT22;9038;48.208;16.308;2022-12-18T01:19:54;0.40;62.90
17827;DHT22;9038;48.208;16.308;2022-12-18T01:21:57;0.40;63.00
17827;DHT22;9038;48.208;16.308;2022-12-18T01:23:59;0.40;63.00
17827;DHT22;9038;48.208;16.308;2022-12-18T01:26:05;0.40;63.20
17827;DHT22;9038;48.208;16.308;2022-12-18T01:28:07;0.30;63.40
17827;DHT22;9038;48.208;16.308;2022-12-18T01:30:10;0.20;63.70
17827;DHT22;9038;48.208;16.308;2022-12-18T01:32:12;0.20;63.90
17827;DHT22;9038;48.208;16.308;2022-12-18T01:34:14;0.10;64.00
17827;DHT22;9038;48.208;16.308;2022-12-18T01:36:18;0.10;64.10
17827;DHT22;9038;48.208;16.308;2022-12-18T01:38:22;0.00;64.20
17827;DHT22;9038;48.208;16.308;2022-12-18T01:40:24;0.00;64.10
17827;DHT22;9038;48.208;16.308;2022-12-18T01:42:26;0.00;64.10
17827;DHT22;9038;48.208;16.308;2022-12-18T01:44:53;0.00;64.10
17827;DHT22;9038;48.208;16.308;2022-12-18T01:46:56;0.00;64.10
17827;DHT22;9038;48.208;16.308;2022-12-18T01:49:00;0.00;64.20
17827;DHT22;9038;48.208;16.308;2022-12-18T01:51:02;0.00;64.20
17827;DHT22;9038;48.208;16.308;2022-12-18T01:53:10;-0.10;64.70
17827;DHT22;9038;48.208;16.308;2022-12-18T01:55:16;-0.10;65.10
17827;DHT22;9038;48.208;16.308;2022-12-18T01:57:18;-0.10;65.10
17827;DHT22;9038;48.208;16.308;2022-12-18T01:59:21;-0.10;65.30
17827;DHT22;9038;48.208;16.308;2022-12-18T02:01:24;-0.10;65.30
17827;DHT22;9038;48.208;16.308;2022-12-18T02:03:26;-0.10;65.40
17827;DHT22;9038;48.208;16.308;2022-12-18T02:05:36;-0.20;65.50
17827;DHT22;9038;48.208;16.308;2022-12-18T02:07:45;-0.20;65.60
17827;DHT22;9038;48.208;16.308;2022-12-18T02:09:54;-0.20;65.60
17827;DHT22;9038;48.208;16.308;2022-12-18T02:12:03;-0.20;65.60
17827;DHT22;9038;48.208;16.308;2022-12-18T02:14:19;-0.20;65.40
17827;DHT22;9038;48.208;16.308;2022-12-18T02:16:27;-0.20;65.50
17827;DHT22;9038;48.208;16.308;2022-12-18T02:18:34;-0.20;65.50
17827;DHT22;9038;48.208;16.308;2022-12-18T02:20:44;-0.20;65.60
17827;DHT22;9038;48.208;16.308;2022-12-18T02:23:00;-0.20;65.60
17827;DHT22;9038;48.208;16.308;2022-12-18T02:25:13;-0.20;65.60
17827;DHT22;9038;48.208;16.308;2022-12-18T02:27:19;-0.20;65.60
17827;DHT22;9038;48.208;16.308;2022-12-18T02:29:24;-0.20;65.60
17827;DHT22;9038;48.208;16.308;2022-12-18T02:31:31;-0.20;65.60
17827;DHT22;9038;48.208;16.308;2022-12-18T02:33:38;-0.20;65.60
17827;DHT22;9038;48.208;16.308;2022-12-18T02:35:41;-0.30;65.60
17827;DHT22;9038;48.208;16.308;2022-12-18T02:37:45;-0.20;65.60
17827;DHT22;9038;48.208;16.308;2022-12-18T02:39:49;-0.20;65.60
17827;DHT22;9038;48.208;16.308;2022-12-18T02:41:51;-0.20;65.60
17827;DHT22;9038;48.208;16.308;2022-12-18T02:43:56;-0.30;65.60
17827;DHT22;9038;48.208;16.308;2022-12-18T02:46:00;-0.30;65.70
17827;DHT22;9038;48.208;16.308;2022-12-18T02:48:03;-0.30;65.80
17827;DHT22;9038;48.208;16.308;2022-12-18T02:50:10;-0.30;65.80
17827;DHT22;9038;48.208;16.308;2022-12-18T02:52:27;-0.30;66.00
17827;DHT22;9038;48.208;16.308;2022-12-18T02:56:56;-0.30;65.90
17827;DHT22;9038;48.208;16.308;2022-12-18T02:59:02;-0.40;66.00
17827;DHT22;9038;48.208;16.308;2022-12-18T03:01:12;-0.40;66.10
17827;DHT22;9038;48.208;16.308;2022-12-18T03:03:19;-0.40;66.10
17827;DHT22;9038;48.208;16.308;2022-12-18T03:05:28;-0.40;66.20
17827;DHT22;9038;48.208;16.308;2022-12-18T03:07:37;-0.40;66.30
17827;DHT22;9038;48.208;16.308;2022-12-18T03:09:43;-0.40;66.30
17827;DHT22;9038;48.208;16.308;2022-12-18T03:11:49;-0.40;66.40
17827;DHT22;9038;48.208;16.308;2022-12-18T03:14:15;-0.50;66.30
17827;DHT22;9038;48.208;16.308;2022-12-18T03:16:24;-0.50;66.40
17827;DHT22;9038;48.208;16.308;2022-12-18T03:18:32;-0.50;66.60
17827;DHT22;9038;48.208;16.308;2022-12-18T03:20:37;-0.50;66.50
17827;DHT22;9038;48.208;16.308;2022-12-18T03:22:43;-0.50;66.40
17827;DHT22;9038;48.208;16.308;2022-12-18T03:24:46;-0.50;66.60
17827;DHT22;9038;48.208;16.308;2022-12-18T03:26:52;-0.50;66.60
17827;DHT22;9038;48.208;16.308;2022-12-18T03:28:59;-0.50;66.60
17827;DHT22;9038;48.208;16.308;2022-12-18T03:31:04;-0.50;66.60
17827;DHT22;9038;48.208;16.308;2022-12-18T03:33:10;-0.50;66.60
17827;DHT22;9038;48.208;16.308;2022-12-18T03:35:18;-0.50;66.60
17827;DHT22;9038;48.208;16.308;2022-12-18T03:37:21;-0.60;66.50
17827;DHT22;9038;48.208;16.308;2022-12-18T03:39:23;-0.60;66.50
17827;DHT22;9038;48.208;16.308;2022-12-18T03:41:29;-0.60;66.50
17827;DHT22;9038;48.208;16.308;2022-12-18T03:43:40;-0.60;66.50
17827;DHT22;9038;48.208;16.308;2022-12-18T03:45:50;-0.60;66.50
17827;DHT22;9038;48.208;16.308;2022-12-18T03:47:59;-0.60;66.50
17827;DHT22;9038;48.208;16.308;2022-12-18T03:50:09;-0.60;66.50
17827;DHT22;9038;48.208;16.308;2022-12-18T03:52:17;-0.60;66.50
17827;DHT22;9038;48.208;16.308;2022-12-18T03:54:22;-0.60;66.50
17827;DHT22;9038;48.208;16.308;2022-12-18T03:56:29;-0.60;66.50
17827;DHT22;9038;48.208;16.308;2022-12-18T03:58:34;-0.60;66.80
17827;DHT22;9038;48.208;16.308;2022-12-18T04:00:37;-0.60;66.60
17827;DHT22;9038;48.208;16.308;2022-12-18T04:02:44;-0.70;66.30
17827;DHT22;9038;48.208;16.308;2022-12-18T04:04:51;-0.70;66.30
17827;DHT22;9038;48.208;16.308;2022-12-18T04:06:55;-0.70;66.40
17827;DHT22;9038;48.208;16.308;2022-12-18T04:08:58;-0.70;66.40
17827;DHT22;9038;48.208;16.308;2022-12-18T04:11:01;-0.70;66.40
17827;DHT22;9038;48.208;16.308;2022-12-18T04:13:03;-0.70;66.40
17827;DHT22;9038;48.208;16.308;2022-12-18T04:15:06;-0.70;66.50
17827;DHT22;9038;48.208;16.308;2022-12-18T04:17:08;-0.70;66.40
17827;DHT22;9038;48.208;16.308;2022-12-18T04:19:10;-0.70;66.40
17827;DHT22;9038;48.208;16.308;2022-12-18T04:21:13;-0.80;66.30
17827;DHT22;9038;48.208;16.308;2022-12-18T04:23:15;-0.80;66.30
17827;DHT22;9038;48.208;16.308;2022-12-18T04:25:17;-0.80;66.20
17827;DHT22;9038;48.208;16.308;2022-12-18T04:27:20;-0.80;66.20
17827;DHT22;9038;48.208;16.308;2022-12-18T04:29:21;-0.80;66.10
17827;DHT22;9038;48.208;16.308;2022-12-18T04:31:23;-0.90;65.90
17827;DHT22;9038;48.208;16.308;2022-12-18T04:33:25;-0.90;65.90
17827;DHT22;9038;48.208;16.308;2022-12-18T04:35:28;-0.90;65.90
17827;DHT22;9038;48.208;16.308;2022-12-18T04:37:31;-0.90;66.00
17827;DHT22;9038;48.208;16.308;2022-12-18T04:39:33;-1.00;66.10
17827;DHT22;9038;48.208;16.308;2022-12-18T04:41:36;-1.00;66.10
17827;DHT22;9038;48.208;16.308;2022-12-18T04:43:38;-1.00;66.10
17827;DHT22;9038;48.208;16.308;2022-12-18T04:45:40;-1.10;66.00
17827;DHT22;9038;48.208;16.308;2022-12-18T04:47:41;-1.10;66.40
17827;DHT22;9038;48.208;16.308;2022-12-18T04:49:44;-1.10;66.60
17827;DHT22;9038;48.208;16.308;2022-12-18T04:51:45;-1.20;66.80
17827;DHT22;9038;48.208;16.308;2022-12-18T04:53:49;-1.20;66.90
17827;DHT22;9038;48.208;16.308;2022-12-18T04:55:51;-1.20;66.80
17827;DHT22;9038;48.208;16.308;2022-12-18T04:58:03;-1.20;66.60
17827;DHT22;9038;48.208;16.308;2022-12-18T05:00:06;-1.20;66.80
17827;DHT22;9038;48.208;16.308;2022-12-18T05:02:08;-1.20;66.90
17827;DHT22;9038;48.208;16.308;2022-12-18T05:04:10;-1.20;66.50
17827;DHT22;9038;48.208;16.308;2022-12-18T05:06:12;-1.20;66.50
17827;DHT22;9038;48.208;16.308;2022-12-18T05:08:14;-1.20;66.80
17827;DHT22;9038;48.208;16.308;2022-12-18T05:10:17;-1.20;66.90
17827;DHT22;9038;48.208;16.308;2022-12-18T05:12:19;-1.30;66.80
17827;DHT22;9038;48.208;16.308;2022-12-18T05:14:21;-1.30;67.10
17827;DHT22;9038;48.208;16.308;2022-12-18T05:16:23;-1.40;67.00
17827;DHT22;9038;48.208;16.308;2022-12-18T05:18:26;-1.40;67.20
17827;DHT22;9038;48.208;16.308;2022-12-18T05:20:28;-1.50;67.40
17827;DHT22;9038;48.208;16.308;2022-12-18T05:22:30;-1.50;67.70
17827;DHT22;9038;48.208;16.308;2022-12-18T05:24:32;-1.60;67.90
17827;DHT22;9038;48.208;16.308;2022-12-18T05:26:35;-1.60;68.10
17827;DHT22;9038;48.208;16.308;2022-12-18T05:28:37;-1.70;68.10
17827;DHT22;9038;48.208;16.308;2022-12-18T05:30:39;-1.70;68.10
17827;DHT22;9038;48.208;16.308;2022-12-18T05:32:41;-1.70;68.20
17827;DHT22;9038;48.208;16.308;2022-12-18T05:34:43;-1.80;68.10
17827;DHT22;9038;48.208;16.308;2022-12-18T05:36:44;-1.80;68.10
17827;DHT22;9038;48.208;16.308;2022-12-18T05:38:46;-1.80;68.20
17827;DHT22;9038;48.208;16.308;2022-12-18T05:40:49;-1.80;68.30
17827;DHT22;9038;48.208;16.308;2022-12-18T05:42:52;-1.80;68.30
17827;DHT22;9038;48.208;16.308;2022-12-18T05:44:54;-1.80;68.30
17827;DHT22;9038;48.208;16.308;2022-12-18T05:46:56;-1.80;68.30
17827;DHT22;9038;48.208;16.308;2022-12-18T05:48:59;-1.80;68.30
17827;DHT22;9038;48.208;16.308;2022-12-18T05:51:05;-1.80;68.30
17827;DHT22;9038;48.208;16.308;2022-12-18T05:53:08;-1.80;67.90
17827;DHT22;9038;48.208;16.308;2022-12-18T05:55:10;-1.70;67.80
17827;DHT22;9038;48.208;16.308;2022-12-18T05:57:12;-1.70;67.60
17827;DHT22;9038;48.208;16.308;2022-12-18T05:59:15;-1.70;67.60
17827;DHT22;9038;48.208;16.308;2022-12-18T06:01:19;-1.80;67.40
17827;DHT22;9038;48.208;16.308;2022-12-18T06:03:21;-1.80;67.50
17827;DHT22;9038;48.208;16.308;2022-12-18T06:05:23;-1.80;67.50
17827;DHT22;9038;48.208;16.308;2022-12-18T06:07:25;-1.80;67.50
17827;DHT22;9038;48.208;16.308;2022-12-18T06:09:28;-1.80;67.50
17827;DHT22;9038;48.208;16.308;2022-12-18T06:11:30;-1.80;67.40
17827;DHT22;9038;48.208;16.308;2022-12-18T06:13:32;-1.80;67.40
17827;DHT22;9038;48.208;16.308;2022-12-18T06:15:37;-1.70;67.60
17827;DHT22;9038;48.208;16.308;2022-12-18T06:17:39;-1.70;68.20
17827;DHT22;9038;48.208;16.308;2022-12-18T06:19:41;-1.80;67.20
17827;DHT22;9038;48.208;16.308;2022-12-18T06:21:43;-1.80;67.30
17827;DHT22;9038;48.208;16.308;2022-12-18T06:23:45;-1.80;67.30
17827;DHT22;9038;48.208;16.308;2022-12-18T06:25:47;-1.80;67.40
17827;DHT22;9038;48.208;16.308;2022-12-18T06:27:49;-1.80;67.40
17827;DHT22;9038;48.208;16.308;2022-12-18T06:29:50;-1.80;67.40
17827;DHT22;9038;48.208;16.308;2022-12-18T06:31:54;-1.80;67.40
17827;DHT22;9038;48.208;16.308;2022-12-18T06:33:56;-1.70;67.50
17827;DHT22;9038;48.208;16.308;2022-12-18T06:36:00;-1.70;67.70
17827;DHT22;9038;48.208;16.308;2022-12-18T06:38:03;-1.80;67.70
17827;DHT22;9038;48.208;16.308;2022-12-18T06:40:06;-1.70;68.40
17827;DHT22;9038;48.208;16.308;2022-12-18T06:42:08;-1.70;68.60
17827;DHT22;9038;48.208;16.308;2022-12-18T06:44:10;-1.70;68.50
17827;DHT22;9038;48.208;16.308;2022-12-18T06:46:12;-1.70;68.50
17827;DHT22;9038;48.208;16.308;2022-12-18T06:48:15;-1.60;68.50
17827;DHT22;9038;48.208;16.308;2022-12-18T06:50:17;-1.60;67.60
17827;DHT22;9038;48.208;16.308;2022-12-18T06:52:19;-1.60;67.40
17827;DHT22;9038;48.208;16.308;2022-12-18T06:54:21;-1.60;67.40
17827;DHT22;9038;48.208;16.308;2022-12-18T06:56:23;-1.60;67.30
17827;DHT22;9038;48.208;16.308;2022-12-18T06:58:25;-1.60;66.90
17827;DHT22;9038;48.208;16.308;2022-12-18T07:00:28;-1.50;66.90
17827;DHT22;9038;48.208;16.308;2022-12-18T07:02:30;-1.50;67.10
17827;DHT22;9038;48.208;16.308;2022-12-18T07:04:33;-1.50;67.50
17827;DHT22;9038;48.208;16.308;2022-12-18T07:06:35;-1.40;67.10
17827;DHT22;9038;48.208;16.308;2022-12-18T07:08:37;-1.40;66.90
17827;DHT22;9038;48.208;16.308;2022-12-18T07:10:41;-1.30;67.00
17827;DHT22;9038;48.208;16.308;2022-12-18T07:12:43;-1.30;67.30
17827;DHT22;9038;48.208;16.308;2022-12-18T07:14:46;-1.30;67.20
17827;DHT22;9038;48.208;16.308;2022-12-18T07:16:48;-1.20;67.30
17827;DHT22;9038;48.208;16.308;2022-12-18T07:18:50;-1.20;67.30
17827;DHT22;9038;48.208;16.308;2022-12-18T07:20:53;-1.20;67.20
17827;DHT22;9038;48.208;16.308;2022-12-18T07:22:55;-1.10;67.20
17827;DHT22;9038;48.208;16.308;2022-12-18T07:24:57;-1.10;67.00
17827;DHT22;9038;48.208;16.308;2022-12-18T07:26:59;-1.00;67.10
17827;DHT22;9038;48.208;16.308;2022-12-18T07:29:01;-1.00;66.90
17827;DHT22;9038;48.208;16.308;2022-12-18T07:31:03;-0.90;66.80
17827;DHT22;9038;48.208;16.308;2022-12-18T07:33:05;-0.90;66.80
17827;DHT22;9038;48.208;16.308;2022-12-18T07:35:07;-0.80;66.30
17827;DHT22;9038;48.208;16.308;2022-12-18T07:37:10;-0.80;66.30
17827;DHT22;9038;48.208;16.308;2022-12-18T07:39:12;-0.80;66.20
17827;DHT22;9038;48.208;16.308;2022-12-18T07:41:14;-0.80;66.10
17827;DHT22;9038;48.208;16.308;2022-12-18T07:43:16;-0.80;66.10
17827;DHT22;9038;48.208;16.308;2022-12-18T07:45:18;-0.80;66.30
17827;DHT22;9038;48.208;16.308;2022-12-18T07:47:20;-0.80;66.30
17827;DHT22;9038;48.208;16.308;2022-12-18T07:49:22;-0.80;66.30
17827;DHT22;9038;48.208;16.308;2022-12-18T07:51:24;-0.80;66.30
17827;DHT22;9038;48.208;16.308;2022-12-18T07:53:27;-0.70;66.40
17827;DHT22;9038;48.208;16.308;2022-12-18T07:55:30;-0.70;66.10
17827;DHT22;9038;48.208;16.308;2022-12-18T07:57:32;-0.70;66.00
17827;DHT22;9038;48.208;16.308;2022-12-18T07:59:34;-0.60;66.10
17827;DHT22;9038;48.208;16.308;2022-12-18T08:01:36;-0.60;65.90
17827;DHT22;9038;48.208;16.308;2022-12-18T08:03:39;-0.60;65.70
17827;DHT22;9038;48.208;16.308;2022-12-18T08:05:41;-0.50;65.60
17827;DHT22;9038;48.208;16.308;2022-12-18T08:07:43;-0.40;65.30
17827;DHT22;9038;48.208;16.308;2022-12-18T08:09:47;-0.20;65.50
17827;DHT22;9038;48.208;16.308;2022-12-18T08:11:48;-0.20;64.90
17827;DHT22;9038;48.208;16.308;2022-12-18T08:13:51;-0.10;64.00
17827;DHT22;9038;48.208;16.308;2022-12-18T08:15:57;-0.10;64.00
17827;DHT22;9038;48.208;16.308;2022-12-18T08:17:59;0.00;64.10
17827;DHT22;9038;48.208;16.308;2022-12-18T08:20:01;0.10;64.20
17827;DHT22;9038;48.208;16.308;2022-12-18T08:22:03;0.10;64.20
17827;DHT22;9038;48.208;16.308;2022-12-18T08:24:05;0.10;64.20
17827;DHT22;9038;48.208;16.308;2022-12-18T08:26:09;0.20;64.20
17827;DHT22;9038;48.208;16.308;2022-12-18T08:28:12;0.20;64.20
17827;DHT22;9038;48.208;16.308;2022-12-18T08:30:14;0.40;64.20
17827;DHT22;9038;48.208;16.308;2022-12-18T08:32:16;0.40;63.70
17827;DHT22;9038;48.208;16.308;2022-12-18T08:34:18;0.50;63.40
17827;DHT22;9038;48.208;16.308;2022-12-18T08:36:20;0.60;63.40
17827;DHT22;9038;48.208;16.308;2022-12-18T08:38:22;0.70;63.30
17827;DHT22;9038;48.208;16.308;2022-12-18T08:40:23;0.80;62.90
17827;DHT22;9038;48.208;16.308;2022-12-18T08:42:27;1.00;62.70
17827;DHT22;9038;48.208;16.308;2022-12-18T08:44:46;1.10;62.10
17827;DHT22;9038;48.208;16.308;2022-12-18T08:46:48;1.20;61.30
17827;DHT22;9038;48.208;16.308;2022-12-18T08:48:51;1.20;61.30
17827;DHT22;9038;48.208;16.308;2022-12-18T08:50:56;1.20;60.90
17827;DHT22;9038;48.208;16.308;2022-12-18T08:52:58;1.20;60.90
17827;DHT22;9038;48.208;16.308;2022-12-18T08:55:00;1.20;61.00
17827;DHT22;9038;48.208;16.308;2022-12-18T08:57:03;1.10;60.80
17827;DHT22;9038;48.208;16.308;2022-12-18T08:59:06;1.10;61.70
17827;DHT22;9038;48.208;16.308;2022-12-18T09:01:10;1.00;61.10
17827;DHT22;9038;48.208;16.308;2022-12-18T09:03:13;0.90;61.50
17827;DHT22;9038;48.208;16.308;2022-12-18T09:05:15;0.90;61.70
17827;DHT22;9038;48.208;16.308;2022-12-18T09:07:17;0.90;61.50
17827;DHT22;9038;48.208;16.308;2022-12-18T09:09:19;0.70;61.50
17827;DHT22;9038;48.208;16.308;2022-12-18T09:11:22;0.70;62.00
17827;DHT22;9038;48.208;16.308;2022-12-18T09:13:24;0.70;62.00
17827;DHT22;9038;48.208;16.308;2022-12-18T09:15:28;0.70;62.40
17827;DHT22;9038;48.208;16.308;2022-12-18T09:17:30;0.60;61.80
17827;DHT22;9038;48.208;16.308;2022-12-18T09:19:32;0.60;62.20
17827;DHT22;9038;48.208;16.308;2022-12-18T09:21:34;0.60;62.60
17827;DHT22;9038;48.208;16.308;2022-12-18T09:23:37;0.60;62.40
17827;DHT22;9038;48.208;16.308;2022-12-18T09:25:39;0.60;62.30
17827;DHT22;9038;48.208;16.308;2022-12-18T09:27:41;0.50;62.70
17827;DHT22;9038;48.208;16.308;2022-12-18T09:29:43;0.40;62.80
17827;DHT22;9038;48.208;16.308;2022-12-18T09:31:46;0.40;62.90
17827;DHT22;9038;48.208;16.308;2022-12-18T09:33:50;0.50;63.00
17827;DHT22;9038;48.208;16.308;2022-12-18T09:35:51;0.60;63.00
17827;DHT22;9038;48.208;16.308;2022-12-18T09:37:53;0.80;62.60
17827;DHT22;9038;48.208;16.308;2022-12-18T09:39:55;0.80;62.00
17827;DHT22;9038;48.208;16.308;2022-12-18T09:41:58;0.70;61.80
17827;DHT22;9038;48.208;16.308;2022-12-18T09:44:03;0.70;61.70
17827;DHT22;9038;48.208;16.308;2022-12-18T09:46:10;0.70;62.00
17827;DHT22;9038;48.208;16.308;2022-12-18T09:48:18;0.80;62.20
17827;DHT22;9038;48.208;16.308;2022-12-18T09:50:25;0.80;61.10
17827;DHT22;9038;48.208;16.308;2022-12-18T09:52:32;0.80;61.60
17827;DHT22;9038;48.208;16.308;2022-12-18T09:54:39;0.80;61.90
17827;DHT22;9038;48.208;16.308;2022-12-18T09:56:42;0.70;61.60
17827;DHT22;9038;48.208;16.308;2022-12-18T09:58:47;0.70;61.60
17827;DHT22;9038;48.208;16.308;2022-12-18T10:00:51;0.80;61.50
17827;DHT22;9038;48.208;16.308;2022-12-18T10:02:59;0.90;61.00
17827;DHT22;9038;48.208;16.308;2022-12-18T10:05:07;0.90;61.00
17827;DHT22;9038;48.208;16.308;2022-12-18T10:07:16;0.90;61.00
17827;DHT22;9038;48.208;16.308;2022-12-18T10:09:27;0.90;60.70
17827;DHT22;9038;48.208;16.308;2022-12-18T10:11:37;0.80;60.80
17827;DHT22;9038;48.208;16.308;2022-12-18T10:13:45;0.80;61.10
17827;DHT22;9038;48.208;16.308;2022-12-18T10:15:59;0.80;61.10
17827;DHT22;9038;48.208;16.308;2022-12-18T10:18:14;0.80;60.50
17827;DHT22;9038;48.208;16.308;2022-12-18T10:20:23;0.60;60.70
17827;DHT22;9038;48.208;16.308;2022-12-18T10:22:34;0.60;61.30
17827;DHT22;9038;48.208;16.308;2022-12-18T10:24:42;0.50;61.40
17827;DHT22;9038;48.208;16.308;2022-12-18T10:26:46;0.60;61.30
17827;DHT22;9038;48.208;16.308;2022-12-18T10:28:48;0.50;60.90
17827;DHT22;9038;48.208;16.308;2022-12-18T10:30:51;0.40;61.20
17827;DHT22;9038;48.208;16.308;2022-12-18T10:32:53;0.40;61.40
17827;DHT22;9038;48.208;16.308;2022-12-18T10:34:57;0.40;61.50
17827;DHT22;9038;48.208;16.308;2022-12-18T10:37:06;0.40;61.50
17827;DHT22;9038;48.208;16.308;2022-12-18T10:39:15;0.50;61.40
17827;DHT22;9038;48.208;16.308;2022-12-18T10:41:26;0.60;61.20
17827;DHT22;9038;48.208;16.308;2022-12-18T10:43:30;0.60;60.70
17827;DHT22;9038;48.208;16.308;2022-12-18T10:45:32;0.60;61.50
17827;DHT22;9038;48.208;16.308;2022-12-18T10:47:34;0.60;61.50
17827;DHT22;9038;48.208;16.308;2022-12-18T10:49:40;0.60;60.80
17827;DHT22;9038;48.208;16.308;2022-12-18T10:51:43;0.50;62.00
17827;DHT22;9038;48.208;16.308;2022-12-18T10:53:52;0.60;61.30
17827;DHT22;9038;48.208;16.308;2022-12-18T10:55:58;0.70;61.20
17827;DHT22;9038;48.208;16.308;2022-12-18T10:58:20;0.70;60.60
17827;DHT22;9038;48.208;16.308;2022-12-18T11:00:25;0.80;60.70
17827;DHT22;9038;48.208;16.308;2022-12-18T11:02:34;0.80;60.50
17827;DHT22;9038;48.208;16.308;2022-12-18T11:04:50;0.90;60.60
17827;DHT22;9038;48.208;16.308;2022-12-18T11:06:57;0.80;60.10
17827;DHT22;9038;48.208;16.308;2022-12-18T11:09:03;0.90;60.30
17827;DHT22;9038;48.208;16.308;2022-12-18T11:11:14;1.00;60.30
17827;DHT22;9038;48.208;16.308;2022-12-18T11:13:19;1.10;59.90
17827;DHT22;9038;48.208;16.308;2022-12-18T11:15:25;1.10;59.50
17827;DHT22;9038;48.208;16.308;2022-12-18T11:17:30;1.20;59.90
17827;DHT22;9038;48.208;16.308;2022-12-18T11:19:34;1.30;59.70
17827;DHT22;9038;48.208;16.308;2022-12-18T11:21:39;1.40;59.50
17827;DHT22;9038;48.208;16.308;2022-12-18T11:23:47;1.50;59.00
17827;DHT22;9038;48.208;16.308;2022-12-18T11:25:54;1.50;58.80
17827;DHT22;9038;48.208;16.308;2022-12-18T11:27:59;1.50;58.70
17827;DHT22;9038;48.208;16.308;2022-12-18T11:30:09;1.50;58.90
17827;DHT22;9038;48.208;16.308;2022-12-18T11:32:30;1.60;59.10
17827;DHT22;9038;48.208;16.308;2022-12-18T11:34:33;1.60;58.80
17827;DHT22;9038;48.208;16.308;2022-12-18T11:36:38;1.40;58.50
17827;DHT22;9038;48.208;16.308;2022-12-18T11:38:42;1.20;59.00
17827;DHT22;9038;48.208;16.308;2022-12-18T11:40:49;1.20;59.10
17827;DHT22;9038;48.208;16.308;2022-12-18T11:43:02;1.20;59.00
17827;DHT22;9038;48.208;16.308;2022-12-18T11:45:25;1.10;59.30
17827;DHT22;9038;48.208;16.308;2022-12-18T11:47:34;1.00;59.80
17827;DHT22;9038;48.208;16.308;2022-12-18T11:49:41;1.00;59.90
17827;DHT22;9038;48.208;16.308;2022-12-18T11:51:50;1.00;59.70
17827;DHT22;9038;48.208;16.308;2022-12-18T11:53:54;1.00;59.90
17827;DHT22;9038;48.208;16.308;2022-12-18T11:56:04;1.00;60.00
17827;DHT22;9038;48.208;16.308;2022-12-18T11:58:14;1.00;60.40
17827;DHT22;9038;48.208;16.308;2022-12-18T12:00:19;1.10;60.50
17827;DHT22;9038;48.208;16.308;2022-12-18T12:02:33;1.20;59.90
17827;DHT22;9038;48.208;16.308;2022-12-18T12:04:50;1.40;59.50
17827;DHT22;9038;48.208;16.308;2022-12-18T12:07:03;1.30;59.30
17827;DHT22;9038;48.208;16.308;2022-12-18T12:09:11;1.30;59.20
17827;DHT22;9038;48.208;16.308;2022-12-18T12:11:26;1.20;59.40
17827;DHT22;9038;48.208;16.308;2022-12-18T12:13:43;1.20;59.90
17827;DHT22;9038;48.208;16.308;2022-12-18T12:15:58;1.10;60.00
17827;DHT22;9038;48.208;16.308;2022-12-18T12:18:08;1.10;60.10
17827;DHT22;9038;48.208;16.308;2022-12-18T12:20:21;1.10;59.70
17827;DHT22;9038;48.208;16.308;2022-12-18T12:22:33;1.10;60.20
17827;DHT22;9038;48.208;16.308;2022-12-18T12:24:48;1.20;60.50
17827;DHT22;9038;48.208;16.308;2022-12-18T12:26:59;1.30;59.60
17827;DHT22;9038;48.208;16.308;2022-12-18T12:29:18;1.20;59.40
17827;DHT22;9038;48.208;16.308;2022-12-18T12:31:47;1.30;59.50
17827;DHT22;9038;48.208;16.308;2022-12-18T12:33:59;1.20;59.40
17827;DHT22;9038;48.208;16.308;2022-12-18T12:36:08;1.20;59.60
17827;DHT22;9038;48.208;16.308;2022-12-18T12:38:15;1.30;59.60
17827;DHT22;9038;48.208;16.308;2022-12-18T12:40:19;1.40;59.50
17827;DHT22;9038;48.208;16.308;2022-12-18T12:42:29;1.40;59.50
17827;DHT22;9038;48.208;16.308;2022-12-18T12:44:54;1.30;59.70
17827;DHT22;9038;48.208;16.308;2022-12-18T12:46:59;1.20;60.10
17827;DHT22;9038;48.208;16.308;2022-12-18T12:49:07;1.00;60.70
17827;DHT22;9038;48.208;16.308;2022-12-18T12:51:15;1.00;61.00
17827;DHT22;9038;48.208;16.308;2022-12-18T12:53:23;0.90;61.40
17827;DHT22;9038;48.208;16.308;2022-12-18T12:55:28;0.80;61.90
17827;DHT22;9038;48.208;16.308;2022-12-18T12:57:34;0.70;61.80
17827;DHT22;9038;48.208;16.308;2022-12-18T12:59:44;0.70;62.10
17827;DHT22;9038;48.208;16.308;2022-12-18T13:01:55;0.80;63.20
17827;DHT22;9038;48.208;16.308;2022-12-18T13:04:06;0.70;62.10
17827;DHT22;9038;48.208;16.308;2022-12-18T13:06:14;0.50;62.20
17827;DHT22;9038;48.208;16.308;2022-12-18T13:08:23;0.40;62.70
17827;DHT22;9038;48.208;16.308;2022-12-18T13:10:34;0.40;63.80
17827;DHT22;9038;48.208;16.308;2022-12-18T13:12:36;0.40;63.20
17827;DHT22;9038;48.208;16.308;2022-12-18T13:14:52;0.30;63.30
17827;DHT22;9038;48.208;16.308;2022-12-18T13:19:33;0.20;63.50